sensor_id;sensor_type;location;lat;lon;timestamp;P1;durP1;ratioP1;P2;durP2;ratioP2
74231;SDS011;62590;52.430;4.902;2022-09-09T00:01:52;5.50;;;1.40;;
74231;SDS011;62590;52.430;4.902;2022-09-09T00:04:28;2.70;;;1.30;;
74231;SDS011;62590;52.430;4.902;2022-09-09T00:12:34;4.85;;;1.40;;
74231;SDS011;62590;52.430;4.902;2022-09-09T00:15:07;3.55;;;1.20;;
74231;SDS011;62590;52.430;4.902;2022-09-09T00:20:32;7.80;;;1.60;;
74231;SDS011;62590;52.430;4.902;2022-09-09T00:23:14;7.18;;;1.85;;
74231;SDS011;62590;52.430;4.902;2022-09-09T00:25:52;3.75;;;2.25;;
74231;SDS011;62590;52.430;4.902;2022-09-09T00:28:20;7.47;;;2.60;;
74231;SDS011;62590;52.430;4.902;2022-09-09T00:30:49;4.75;;;2.33;;
74231;SDS011;62590;52.430;4.902;2022-09-09T00:33:16;4.68;;;2.72;;
74231;SDS011;62590;52.430;4.902;2022-09-09T00:35:56;10.93;;;3.13;;
74231;SDS011;62590;52.430;4.902;2022-09-09T00:38:24;7.65;;;2.70;;
74231;SDS011;62590;52.430;4.902;2022-09-09T00:41:00;9.95;;;2.80;;
74231;SDS011;62590;52.430;4.902;2022-09-09T00:43:37;5.18;;;2.80;;
74231;SDS011;62590;52.430;4.902;2022-09-09T00:46:17;8.85;;;2.95;;
74231;SDS011;62590;52.430;4.902;2022-09-09T00:56:56;7.78;;;3.85;;
74231;SDS011;62590;52.430;4.902;2022-09-09T00:59:50;8.45;;;3.88;;
74231;SDS011;62590;52.430;4.902;2022-09-09T01:02:21;6.05;;;3.30;;
74231;SDS011;62590;52.430;4.902;2022-09-09T01:04:57;9.30;;;4.03;;
74231;SDS011;62590;52.430;4.902;2022-09-09T01:07:30;7.97;;;3.45;;
74231;SDS011;62590;52.430;4.902;2022-09-09T01:09:57;8.63;;;4.55;;
74231;SDS011;62590;52.430;4.902;2022-09-09T01:15:07;12.48;;;5.22;;
74231;SDS011;62590;52.430;4.902;2022-09-09T01:20:29;12.90;;;4.65;;
74231;SDS011;62590;52.430;4.902;2022-09-09T01:28:37;16.88;;;4.75;;
74231;SDS011;62590;52.430;4.902;2022-09-09T01:31:05;16.80;;;5.38;;
74231;SDS011;62590;52.430;4.902;2022-09-09T01:33:33;11.90;;;5.82;;
74231;SDS011;62590;52.430;4.902;2022-09-09T01:38:32;11.30;;;5.68;;
74231;SDS011;62590;52.430;4.902;2022-09-09T01:41:00;12.15;;;5.95;;
74231;SDS011;62590;52.430;4.902;2022-09-09T01:43:26;9.00;;;5.53;;
74231;SDS011;62590;52.430;4.902;2022-09-09T01:45:53;12.15;;;5.93;;
74231;SDS011;62590;52.430;4.902;2022-09-09T01:48:21;16.23;;;6.05;;
74231;SDS011;62590;52.430;4.902;2022-09-09T01:50:48;15.73;;;5.80;;
74231;SDS011;62590;52.430;4.902;2022-09-09T01:53:14;13.40;;;5.32;;
74231;SDS011;62590;52.430;4.902;2022-09-09T01:55:55;12.27;;;5.78;;
74231;SDS011;62590;52.430;4.902;2022-09-09T01:58:37;14.20;;;5.20;;
74231;SDS011;62590;52.430;4.902;2022-09-09T02:04:18;7.85;;;4.80;;
74231;SDS011;62590;52.430;4.902;2022-09-09T02:07:10;14.20;;;6.17;;
74231;SDS011;62590;52.430;4.902;2022-09-09T02:09:40;12.77;;;6.15;;
74231;SDS011;62590;52.430;4.902;2022-09-09T02:12:14;11.40;;;5.95;;
74231;SDS011;62590;52.430;4.902;2022-09-09T02:14:44;14.23;;;6.30;;
74231;SDS011;62590;52.430;4.902;2022-09-09T02:17:15;11.13;;;5.55;;
74231;SDS011;62590;52.430;4.902;2022-09-09T02:19:49;10.90;;;5.28;;
74231;SDS011;62590;52.430;4.902;2022-09-09T02:22:22;10.80;;;5.80;;
74231;SDS011;62590;52.430;4.902;2022-09-09T02:24:51;14.18;;;6.35;;
74231;SDS011;62590;52.430;4.902;2022-09-09T02:27:22;10.32;;;6.30;;
74231;SDS011;62590;52.430;4.902;2022-09-09T02:29:47;10.45;;;5.55;;
74231;SDS011;62590;52.430;4.902;2022-09-09T02:32:18;11.68;;;5.68;;
74231;SDS011;62590;52.430;4.902;2022-09-09T02:34:53;13.80;;;5.40;;
74231;SDS011;62590;52.430;4.902;2022-09-09T02:37:22;12.57;;;6.13;;
74231;SDS011;62590;52.430;4.902;2022-09-09T02:39:53;14.90;;;6.00;;
74231;SDS011;62590;52.430;4.902;2022-09-09T02:42:19;10.00;;;5.82;;
74231;SDS011;62590;52.430;4.902;2022-09-09T02:44:44;11.27;;;5.78;;
74231;SDS011;62590;52.430;4.902;2022-09-09T02:47:15;11.05;;;5.70;;
74231;SDS011;62590;52.430;4.902;2022-09-09T02:58:29;14.25;;;5.90;;
74231;SDS011;62590;52.430;4.902;2022-09-09T03:00:55;11.10;;;5.82;;
74231;SDS011;62590;52.430;4.902;2022-09-09T03:03:22;17.45;;;6.38;;
74231;SDS011;62590;52.430;4.902;2022-09-09T03:05:48;13.18;;;6.35;;
74231;SDS011;62590;52.430;4.902;2022-09-09T03:08:14;9.95;;;5.35;;
74231;SDS011;62590;52.430;4.902;2022-09-09T03:10:40;13.15;;;5.82;;
74231;SDS011;62590;52.430;4.902;2022-09-09T03:13:05;15.35;;;6.45;;
74231;SDS011;62590;52.430;4.902;2022-09-09T03:15:31;10.27;;;5.65;;
74231;SDS011;62590;52.430;4.902;2022-09-09T03:17:58;10.75;;;5.18;;
74231;SDS011;62590;52.430;4.902;2022-09-09T03:20:24;12.13;;;5.75;;
74231;SDS011;62590;52.430;4.902;2022-09-09T03:22:51;11.73;;;5.18;;
74231;SDS011;62590;52.430;4.902;2022-09-09T03:25:20;10.93;;;5.78;;
74231;SDS011;62590;52.430;4.902;2022-09-09T03:27:49;12.25;;;5.45;;
74231;SDS011;62590;52.430;4.902;2022-09-09T03:30:14;11.65;;;5.25;;
74231;SDS011;62590;52.430;4.902;2022-09-09T03:32:40;14.52;;;5.88;;
74231;SDS011;62590;52.430;4.902;2022-09-09T03:35:06;7.80;;;5.32;;
74231;SDS011;62590;52.430;4.902;2022-09-09T03:37:31;11.77;;;5.95;;
74231;SDS011;62590;52.430;4.902;2022-09-09T03:39:57;11.43;;;6.15;;
74231;SDS011;62590;52.430;4.902;2022-09-09T03:42:22;16.77;;;7.38;;
74231;SDS011;62590;52.430;4.902;2022-09-09T03:44:47;11.90;;;6.25;;
74231;SDS011;62590;52.430;4.902;2022-09-09T03:47:19;8.68;;;5.38;;
74231;SDS011;62590;52.430;4.902;2022-09-09T03:49:46;13.20;;;6.63;;
74231;SDS011;62590;52.430;4.902;2022-09-09T03:52:13;13.63;;;6.10;;
74231;SDS011;62590;52.430;4.902;2022-09-09T03:54:39;11.13;;;5.50;;
74231;SDS011;62590;52.430;4.902;2022-09-09T03:57:05;11.98;;;5.18;;
74231;SDS011;62590;52.430;4.902;2022-09-09T03:59:31;14.35;;;6.03;;
74231;SDS011;62590;52.430;4.902;2022-09-09T04:02:00;16.42;;;5.97;;
74231;SDS011;62590;52.430;4.902;2022-09-09T04:04:25;14.85;;;5.82;;
74231;SDS011;62590;52.430;4.902;2022-09-09T04:06:51;17.75;;;6.93;;
74231;SDS011;62590;52.430;4.902;2022-09-09T04:09:17;15.70;;;6.53;;
74231;SDS011;62590;52.430;4.902;2022-09-09T04:11:42;17.73;;;6.00;;
74231;SDS011;62590;52.430;4.902;2022-09-09T04:14:08;16.77;;;6.40;;
74231;SDS011;62590;52.430;4.902;2022-09-09T04:16:33;13.38;;;6.72;;
74231;SDS011;62590;52.430;4.902;2022-09-09T04:19:02;16.83;;;6.43;;
74231;SDS011;62590;52.430;4.902;2022-09-09T04:21:29;13.52;;;6.82;;
74231;SDS011;62590;52.430;4.902;2022-09-09T04:23:55;14.30;;;6.25;;
74231;SDS011;62590;52.430;4.902;2022-09-09T04:26:20;13.68;;;5.85;;
74231;SDS011;62590;52.430;4.902;2022-09-09T04:28:46;16.67;;;5.47;;
74231;SDS011;62590;52.430;4.902;2022-09-09T04:31:16;15.20;;;6.20;;
74231;SDS011;62590;52.430;4.902;2022-09-09T04:33:43;17.42;;;6.00;;
74231;SDS011;62590;52.430;4.902;2022-09-09T04:36:08;11.18;;;5.28;;
74231;SDS011;62590;52.430;4.902;2022-09-09T04:38:33;14.20;;;4.80;;
74231;SDS011;62590;52.430;4.902;2022-09-09T04:40:59;11.38;;;4.63;;
74231;SDS011;62590;52.430;4.902;2022-09-09T04:43:24;9.70;;;5.00;;
74231;SDS011;62590;52.430;4.902;2022-09-09T04:45:52;13.38;;;5.18;;
74231;SDS011;62590;52.430;4.902;2022-09-09T04:48:19;10.73;;;5.03;;
74231;SDS011;62590;52.430;4.902;2022-09-09T04:50:53;8.88;;;4.57;;
74231;SDS011;62590;52.430;4.902;2022-09-09T04:53:21;18.48;;;5.07;;
74231;SDS011;62590;52.430;4.902;2022-09-09T04:55:47;12.23;;;4.80;;
74231;SDS011;62590;52.430;4.902;2022-09-09T04:58:13;10.32;;;5.30;;
74231;SDS011;62590;52.430;4.902;2022-09-09T05:00:39;11.30;;;4.35;;
74231;SDS011;62590;52.430;4.902;2022-09-09T05:03:04;9.68;;;4.30;;
74231;SDS011;62590;52.430;4.902;2022-09-09T05:05:31;9.90;;;3.70;;
74231;SDS011;62590;52.430;4.902;2022-09-09T05:08:06;11.85;;;3.70;;
74231;SDS011;62590;52.430;4.902;2022-09-09T05:10:36;7.65;;;3.55;;
74231;SDS011;62590;52.430;4.902;2022-09-09T05:13:02;6.85;;;3.28;;
74231;SDS011;62590;52.430;4.902;2022-09-09T05:15:29;11.57;;;3.55;;
74231;SDS011;62590;52.430;4.902;2022-09-09T05:17:58;10.50;;;2.85;;
74231;SDS011;62590;52.430;4.902;2022-09-09T05:20:25;10.27;;;3.30;;
74231;SDS011;62590;52.430;4.902;2022-09-09T05:22:52;10.98;;;3.63;;
74231;SDS011;62590;52.430;4.902;2022-09-09T05:25:19;9.85;;;3.33;;
74231;SDS011;62590;52.430;4.902;2022-09-09T05:27:44;8.15;;;3.03;;
74231;SDS011;62590;52.430;4.902;2022-09-09T05:30:10;14.65;;;3.47;;
74231;SDS011;62590;52.430;4.902;2022-09-09T05:32:35;6.18;;;2.53;;
74231;SDS011;62590;52.430;4.902;2022-09-09T05:35:01;6.78;;;2.53;;
74231;SDS011;62590;52.430;4.902;2022-09-09T05:37:26;9.95;;;3.30;;
74231;SDS011;62590;52.430;4.902;2022-09-09T05:39:52;7.72;;;3.22;;
74231;SDS011;62590;52.430;4.902;2022-09-09T05:42:18;8.98;;;2.45;;
74231;SDS011;62590;52.430;4.902;2022-09-09T05:44:43;7.47;;;3.28;;
74231;SDS011;62590;52.430;4.902;2022-09-09T05:47:09;9.82;;;3.22;;
74231;SDS011;62590;52.430;4.902;2022-09-09T05:49:35;15.98;;;2.70;;
74231;SDS011;62590;52.430;4.902;2022-09-09T05:52:00;8.25;;;2.75;;
74231;SDS011;62590;52.430;4.902;2022-09-09T05:54:26;8.73;;;2.67;;
74231;SDS011;62590;52.430;4.902;2022-09-09T05:56:51;10.93;;;2.88;;
74231;SDS011;62590;52.430;4.902;2022-09-09T05:59:18;11.68;;;2.85;;
74231;SDS011;62590;52.430;4.902;2022-09-09T06:01:44;7.60;;;2.58;;
74231;SDS011;62590;52.430;4.902;2022-09-09T06:04:10;9.15;;;2.47;;
74231;SDS011;62590;52.430;4.902;2022-09-09T06:06:36;7.97;;;3.03;;
74231;SDS011;62590;52.430;4.902;2022-09-09T06:09:04;11.30;;;3.70;;
74231;SDS011;62590;52.430;4.902;2022-09-09T06:11:35;13.30;;;2.50;;
74231;SDS011;62590;52.430;4.902;2022-09-09T06:14:03;8.95;;;2.35;;
74231;SDS011;62590;52.430;4.902;2022-09-09T06:16:30;16.50;;;3.15;;
74231;SDS011;62590;52.430;4.902;2022-09-09T06:18:59;11.77;;;2.92;;
74231;SDS011;62590;52.430;4.902;2022-09-09T06:24:03;9.68;;;2.67;;
74231;SDS011;62590;52.430;4.902;2022-09-09T06:26:30;9.50;;;2.80;;
74231;SDS011;62590;52.430;4.902;2022-09-09T06:28:57;6.55;;;2.38;;
74231;SDS011;62590;52.430;4.902;2022-09-09T06:31:25;6.25;;;2.33;;
74231;SDS011;62590;52.430;4.902;2022-09-09T06:33:55;12.13;;;3.38;;
74231;SDS011;62590;52.430;4.902;2022-09-09T06:36:22;11.35;;;1.98;;
74231;SDS011;62590;52.430;4.902;2022-09-09T06:38:49;7.38;;;2.30;;
74231;SDS011;62590;52.430;4.902;2022-09-09T06:41:15;8.68;;;2.30;;
74231;SDS011;62590;52.430;4.902;2022-09-09T06:43:43;13.55;;;3.03;;
74231;SDS011;62590;52.430;4.902;2022-09-09T06:48:41;14.95;;;2.67;;
74231;SDS011;62590;52.430;4.902;2022-09-09T06:51:13;10.07;;;2.50;;
74231;SDS011;62590;52.430;4.902;2022-09-09T06:53:41;11.05;;;2.60;;
74231;SDS011;62590;52.430;4.902;2022-09-09T06:58:44;15.52;;;2.80;;
74231;SDS011;62590;52.430;4.902;2022-09-09T07:01:11;13.77;;;3.30;;
74231;SDS011;62590;52.430;4.902;2022-09-09T07:03:41;9.82;;;3.83;;
74231;SDS011;62590;52.430;4.902;2022-09-09T07:06:13;10.00;;;3.30;;
74231;SDS011;62590;52.430;4.902;2022-09-09T07:08:42;16.08;;;3.63;;
74231;SDS011;62590;52.430;4.902;2022-09-09T07:11:08;18.35;;;3.92;;
74231;SDS011;62590;52.430;4.902;2022-09-09T07:13:35;8.07;;;3.20;;
74231;SDS011;62590;52.430;4.902;2022-09-09T07:16:04;15.65;;;4.82;;
74231;SDS011;62590;52.430;4.902;2022-09-09T07:18:30;11.57;;;3.60;;
74231;SDS011;62590;52.430;4.902;2022-09-09T07:20:56;20.08;;;4.75;;
74231;SDS011;62590;52.430;4.902;2022-09-09T07:23:22;13.35;;;4.07;;
74231;SDS011;62590;52.430;4.902;2022-09-09T07:25:47;11.52;;;3.88;;
74231;SDS011;62590;52.430;4.902;2022-09-09T07:28:13;12.75;;;4.20;;
74231;SDS011;62590;52.430;4.902;2022-09-09T07:30:39;12.82;;;3.97;;
74231;SDS011;62590;52.430;4.902;2022-09-09T07:33:05;11.40;;;3.65;;
74231;SDS011;62590;52.430;4.902;2022-09-09T07:35:31;22.63;;;4.93;;
74231;SDS011;62590;52.430;4.902;2022-09-09T07:37:56;19.55;;;5.00;;
74231;SDS011;62590;52.430;4.902;2022-09-09T07:40:23;13.82;;;4.18;;
74231;SDS011;62590;52.430;4.902;2022-09-09T07:42:49;17.52;;;4.32;;
74231;SDS011;62590;52.430;4.902;2022-09-09T07:45:16;15.35;;;3.70;;
74231;SDS011;62590;52.430;4.902;2022-09-09T07:47:42;14.68;;;4.63;;
74231;SDS011;62590;52.430;4.902;2022-09-09T07:50:07;16.52;;;4.38;;
74231;SDS011;62590;52.430;4.902;2022-09-09T07:52:34;15.75;;;4.22;;
74231;SDS011;62590;52.430;4.902;2022-09-09T07:54:59;10.90;;;4.18;;
74231;SDS011;62590;52.430;4.902;2022-09-09T07:57:27;21.50;;;4.45;;
74231;SDS011;62590;52.430;4.902;2022-09-09T07:59:55;13.65;;;4.47;;
74231;SDS011;62590;52.430;4.902;2022-09-09T08:02:21;12.00;;;4.50;;
74231;SDS011;62590;52.430;4.902;2022-09-09T08:04:46;17.65;;;4.93;;
74231;SDS011;62590;52.430;4.902;2022-09-09T08:07:12;11.68;;;4.38;;
74231;SDS011;62590;52.430;4.902;2022-09-09T08:09:38;10.68;;;4.10;;
74231;SDS011;62590;52.430;4.902;2022-09-09T08:12:03;16.90;;;4.70;;
74231;SDS011;62590;52.430;4.902;2022-09-09T08:14:30;28.45;;;4.75;;
74231;SDS011;62590;52.430;4.902;2022-09-09T08:16:55;18.42;;;4.50;;
74231;SDS011;62590;52.430;4.902;2022-09-09T08:19:22;19.88;;;4.90;;
74231;SDS011;62590;52.430;4.902;2022-09-09T08:21:48;12.32;;;4.38;;
74231;SDS011;62590;52.430;4.902;2022-09-09T08:24:14;13.85;;;3.30;;
74231;SDS011;62590;52.430;4.902;2022-09-09T08:26:41;11.82;;;3.88;;
74231;SDS011;62590;52.430;4.902;2022-09-09T08:29:11;15.18;;;3.78;;
74231;SDS011;62590;52.430;4.902;2022-09-09T08:31:48;11.30;;;4.00;;
74231;SDS011;62590;52.430;4.902;2022-09-09T08:34:16;16.27;;;4.78;;
74231;SDS011;62590;52.430;4.902;2022-09-09T08:36:45;13.18;;;4.30;;
74231;SDS011;62590;52.430;4.902;2022-09-09T08:39:12;10.27;;;3.63;;
74231;SDS011;62590;52.430;4.902;2022-09-09T08:44:16;13.82;;;3.92;;
74231;SDS011;62590;52.430;4.902;2022-09-09T08:49:30;14.80;;;4.30;;
74231;SDS011;62590;52.430;4.902;2022-09-09T08:52:23;13.57;;;4.00;;
74231;SDS011;62590;52.430;4.902;2022-09-09T08:54:54;15.43;;;4.38;;
74231;SDS011;62590;52.430;4.902;2022-09-09T08:57:38;11.73;;;3.97;;
74231;SDS011;62590;52.430;4.902;2022-09-09T09:00:04;10.35;;;3.67;;
74231;SDS011;62590;52.430;4.902;2022-09-09T09:02:37;11.00;;;3.95;;
74231;SDS011;62590;52.430;4.902;2022-09-09T09:05:26;15.98;;;3.47;;
74231;SDS011;62590;52.430;4.902;2022-09-09T09:10:54;14.95;;;3.95;;
74231;SDS011;62590;52.430;4.902;2022-09-09T09:13:39;7.70;;;4.00;;
74231;SDS011;62590;52.430;4.902;2022-09-09T09:16:50;12.45;;;4.22;;
74231;SDS011;62590;52.430;4.902;2022-09-09T09:19:17;8.40;;;3.92;;
74231;SDS011;62590;52.430;4.902;2022-09-09T09:24:39;11.25;;;4.22;;
74231;SDS011;62590;52.430;4.902;2022-09-09T09:29:55;10.57;;;3.72;;
74231;SDS011;62590;52.430;4.902;2022-09-09T09:32:23;9.02;;;4.40;;
74231;SDS011;62590;52.430;4.902;2022-09-09T09:34:58;9.93;;;4.30;;
74231;SDS011;62590;52.430;4.902;2022-09-09T09:37:30;9.02;;;3.60;;
74231;SDS011;62590;52.430;4.902;2022-09-09T09:40:47;13.02;;;4.00;;
74231;SDS011;62590;52.430;4.902;2022-09-09T09:42:56;14.15;;;3.85;;
74231;SDS011;62590;52.430;4.902;2022-09-09T09:45:28;10.52;;;3.78;;
74231;SDS011;62590;52.430;4.902;2022-09-09T09:48:04;17.07;;;4.43;;
74231;SDS011;62590;52.430;4.902;2022-09-09T09:50:31;11.52;;;3.53;;
74231;SDS011;62590;52.430;4.902;2022-09-09T09:52:59;9.48;;;3.38;;
74231;SDS011;62590;52.430;4.902;2022-09-09T09:55:30;22.52;;;3.35;;
74231;SDS011;62590;52.430;4.902;2022-09-09T09:58:02;14.35;;;3.72;;
74231;SDS011;62590;52.430;4.902;2022-09-09T10:00:29;12.07;;;3.20;;
74231;SDS011;62590;52.430;4.902;2022-09-09T10:02:54;16.00;;;3.10;;
74231;SDS011;62590;52.430;4.902;2022-09-09T10:10:42;19.50;;;4.60;;
74231;SDS011;62590;52.430;4.902;2022-09-09T10:13:20;8.30;;;2.85;;
74231;SDS011;62590;52.430;4.902;2022-09-09T10:15:54;11.77;;;3.10;;
74231;SDS011;62590;52.430;4.902;2022-09-09T10:18:45;12.95;;;3.05;;
74231;SDS011;62590;52.430;4.902;2022-09-09T10:34:57;12.35;;;3.00;;
74231;SDS011;62590;52.430;4.902;2022-09-09T10:43:13;13.25;;;2.70;;
74231;SDS011;62590;52.430;4.902;2022-09-09T10:48:50;8.23;;;2.58;;
74231;SDS011;62590;52.430;4.902;2022-09-09T10:57:02;14.73;;;2.72;;
74231;SDS011;62590;52.430;4.902;2022-09-09T10:59:33;17.30;;;2.58;;
74231;SDS011;62590;52.430;4.902;2022-09-09T11:02:10;6.82;;;1.80;;
74231;SDS011;62590;52.430;4.902;2022-09-09T11:04:51;7.82;;;1.88;;
74231;SDS011;62590;52.430;4.902;2022-09-09T11:07:26;7.43;;;2.17;;
74231;SDS011;62590;52.430;4.902;2022-09-09T11:10:02;9.77;;;2.90;;
74231;SDS011;62590;52.430;4.902;2022-09-09T11:12:32;7.45;;;2.40;;
74231;SDS011;62590;52.430;4.902;2022-09-09T11:15:06;9.60;;;2.30;;
74231;SDS011;62590;52.430;4.902;2022-09-09T11:17:42;12.32;;;2.55;;
74231;SDS011;62590;52.430;4.902;2022-09-09T11:20:14;9.65;;;2.88;;
74231;SDS011;62590;52.430;4.902;2022-09-09T11:25:13;9.73;;;2.28;;
74231;SDS011;62590;52.430;4.902;2022-09-09T11:27:44;11.20;;;2.63;;
74231;SDS011;62590;52.430;4.902;2022-09-09T11:30:19;6.57;;;2.05;;
74231;SDS011;62590;52.430;4.902;2022-09-09T11:40:44;4.85;;;1.80;;
74231;SDS011;62590;52.430;4.902;2022-09-09T11:43:24;4.25;;;1.80;;
74231;SDS011;62590;52.430;4.902;2022-09-09T11:45:54;11.95;;;2.38;;
74231;SDS011;62590;52.430;4.902;2022-09-09T11:48:33;8.75;;;2.10;;
74231;SDS011;62590;52.430;4.902;2022-09-09T11:51:02;10.68;;;1.88;;
74231;SDS011;62590;52.430;4.902;2022-09-09T11:53:52;6.30;;;1.88;;
74231;SDS011;62590;52.430;4.902;2022-09-09T11:56:47;5.57;;;1.77;;
74231;SDS011;62590;52.430;4.902;2022-09-09T11:59:32;7.30;;;1.52;;
74231;SDS011;62590;52.430;4.902;2022-09-09T12:02:22;4.88;;;1.60;;
74231;SDS011;62590;52.430;4.902;2022-09-09T12:10:22;6.13;;;1.63;;
74231;SDS011;62590;52.430;4.902;2022-09-09T12:12:51;4.63;;;1.85;;
74231;SDS011;62590;52.430;4.902;2022-09-09T12:15:19;5.15;;;1.60;;
74231;SDS011;62590;52.430;4.902;2022-09-09T12:17:51;6.93;;;2.13;;
74231;SDS011;62590;52.430;4.902;2022-09-09T12:28:21;4.95;;;1.63;;
74231;SDS011;62590;52.430;4.902;2022-09-09T12:33:36;7.60;;;1.60;;
74231;SDS011;62590;52.430;4.902;2022-09-09T12:36:10;5.18;;;1.60;;
74231;SDS011;62590;52.430;4.902;2022-09-09T12:38:40;4.43;;;1.58;;
74231;SDS011;62590;52.430;4.902;2022-09-09T12:41:28;8.15;;;2.05;;
74231;SDS011;62590;52.430;4.902;2022-09-09T12:44:03;5.78;;;2.05;;
74231;SDS011;62590;52.430;4.902;2022-09-09T12:46:35;6.20;;;1.77;;
74231;SDS011;62590;52.430;4.902;2022-09-09T12:49:05;6.10;;;2.13;;
74231;SDS011;62590;52.430;4.902;2022-09-09T12:51:49;7.05;;;2.30;;
74231;SDS011;62590;52.430;4.902;2022-09-09T12:54:14;5.30;;;2.22;;
74231;SDS011;62590;52.430;4.902;2022-09-09T12:56:44;10.05;;;2.40;;
74231;SDS011;62590;52.430;4.902;2022-09-09T12:59:21;6.88;;;2.67;;
74231;SDS011;62590;52.430;4.902;2022-09-09T13:01:56;6.95;;;2.00;;
74231;SDS011;62590;52.430;4.902;2022-09-09T13:04:23;7.35;;;1.90;;
74231;SDS011;62590;52.430;4.902;2022-09-09T13:06:48;9.10;;;2.20;;
74231;SDS011;62590;52.430;4.902;2022-09-09T13:09:14;5.70;;;2.20;;
74231;SDS011;62590;52.430;4.902;2022-09-09T13:11:58;5.25;;;2.38;;
74231;SDS011;62590;52.430;4.902;2022-09-09T13:14:31;8.90;;;2.47;;
74231;SDS011;62590;52.430;4.902;2022-09-09T13:17:00;10.18;;;2.13;;
74231;SDS011;62590;52.430;4.902;2022-09-09T13:19:32;5.82;;;1.92;;
74231;SDS011;62590;52.430;4.902;2022-09-09T13:22:11;6.53;;;2.13;;
74231;SDS011;62590;52.430;4.902;2022-09-09T13:25:04;7.90;;;2.30;;
74231;SDS011;62590;52.430;4.902;2022-09-09T13:27:40;8.77;;;2.13;;
74231;SDS011;62590;52.430;4.902;2022-09-09T13:30:27;9.15;;;2.40;;
74231;SDS011;62590;52.430;4.902;2022-09-09T13:35:55;9.75;;;3.17;;
74231;SDS011;62590;52.430;4.902;2022-09-09T13:38:22;7.78;;;2.15;;
74231;SDS011;62590;52.430;4.902;2022-09-09T13:41:08;10.05;;;3.17;;
74231;SDS011;62590;52.430;4.902;2022-09-09T13:43:45;6.25;;;2.42;;
74231;SDS011;62590;52.430;4.902;2022-09-09T13:51:40;6.57;;;2.10;;
74231;SDS011;62590;52.430;4.902;2022-09-09T13:54:10;5.55;;;1.63;;
74231;SDS011;62590;52.430;4.902;2022-09-09T13:56:40;6.28;;;1.60;;
74231;SDS011;62590;52.430;4.902;2022-09-09T13:59:14;5.80;;;1.67;;
74231;SDS011;62590;52.430;4.902;2022-09-09T14:01:42;5.25;;;1.25;;
74231;SDS011;62590;52.430;4.902;2022-09-09T14:04:08;8.25;;;1.98;;
74231;SDS011;62590;52.430;4.902;2022-09-09T14:06:37;7.05;;;1.70;;
74231;SDS011;62590;52.430;4.902;2022-09-09T14:09:07;7.85;;;1.60;;
74231;SDS011;62590;52.430;4.902;2022-09-09T14:11:36;6.75;;;1.60;;
74231;SDS011;62590;52.430;4.902;2022-09-09T14:14:02;8.02;;;1.90;;
74231;SDS011;62590;52.430;4.902;2022-09-09T14:16:27;8.20;;;1.63;;
74231;SDS011;62590;52.430;4.902;2022-09-09T14:18:53;5.40;;;1.35;;
74231;SDS011;62590;52.430;4.902;2022-09-09T14:21:21;3.05;;;1.33;;
74231;SDS011;62590;52.430;4.902;2022-09-09T14:23:47;4.18;;;1.38;;
74231;SDS011;62590;52.430;4.902;2022-09-09T14:26:13;6.70;;;1.70;;
74231;SDS011;62590;52.430;4.902;2022-09-09T14:28:39;12.32;;;2.33;;
74231;SDS011;62590;52.430;4.902;2022-09-09T14:31:05;10.70;;;1.42;;
74231;SDS011;62590;52.430;4.902;2022-09-09T14:33:35;4.38;;;1.23;;
74231;SDS011;62590;52.430;4.902;2022-09-09T14:36:02;3.90;;;1.30;;
74231;SDS011;62590;52.430;4.902;2022-09-09T14:38:28;4.70;;;1.10;;
74231;SDS011;62590;52.430;4.902;2022-09-09T14:40:55;6.15;;;1.20;;
74231;SDS011;62590;52.430;4.902;2022-09-09T14:43:21;4.20;;;1.17;;
74231;SDS011;62590;52.430;4.902;2022-09-09T14:45:46;4.55;;;1.20;;
74231;SDS011;62590;52.430;4.902;2022-09-09T14:48:13;5.95;;;1.30;;
74231;SDS011;62590;52.430;4.902;2022-09-09T14:50:39;8.85;;;2.67;;
74231;SDS011;62590;52.430;4.902;2022-09-09T14:53:05;5.07;;;1.35;;
74231;SDS011;62590;52.430;4.902;2022-09-09T14:55:32;3.03;;;1.35;;
74231;SDS011;62590;52.430;4.902;2022-09-09T14:57:57;5.72;;;1.40;;
74231;SDS011;62590;52.430;4.902;2022-09-09T15:00:23;5.72;;;1.40;;
74231;SDS011;62590;52.430;4.902;2022-09-09T15:02:51;6.93;;;1.73;;
74231;SDS011;62590;52.430;4.902;2022-09-09T15:05:20;8.13;;;1.90;;
74231;SDS011;62590;52.430;4.902;2022-09-09T15:07:46;5.85;;;1.30;;
74231;SDS011;62590;52.430;4.902;2022-09-09T15:10:13;2.70;;;1.13;;
74231;SDS011;62590;52.430;4.902;2022-09-09T15:12:39;5.18;;;1.60;;
74231;SDS011;62590;52.430;4.902;2022-09-09T15:15:04;6.72;;;1.20;;
74231;SDS011;62590;52.430;4.902;2022-09-09T15:17:30;7.97;;;1.27;;
74231;SDS011;62590;52.430;4.902;2022-09-09T15:19:56;7.03;;;1.20;;
74231;SDS011;62590;52.430;4.902;2022-09-09T15:22:22;4.40;;;1.08;;
74231;SDS011;62590;52.430;4.902;2022-09-09T15:24:49;4.07;;;1.13;;
74231;SDS011;62590;52.430;4.902;2022-09-09T15:27:14;4.82;;;0.90;;
74231;SDS011;62590;52.430;4.902;2022-09-09T15:29:40;5.05;;;1.08;;
74231;SDS011;62590;52.430;4.902;2022-09-09T15:32:06;3.03;;;0.93;;
74231;SDS011;62590;52.430;4.902;2022-09-09T15:34:32;7.57;;;1.33;;
74231;SDS011;62590;52.430;4.902;2022-09-09T15:36:57;4.43;;;0.88;;
74231;SDS011;62590;52.430;4.902;2022-09-09T15:39:27;3.83;;;0.93;;
74231;SDS011;62590;52.430;4.902;2022-09-09T15:41:53;9.82;;;1.45;;
74231;SDS011;62590;52.430;4.902;2022-09-09T15:44:18;6.25;;;1.20;;
74231;SDS011;62590;52.430;4.902;2022-09-09T15:46:50;8.25;;;1.48;;
74231;SDS011;62590;52.430;4.902;2022-09-09T15:49:20;5.80;;;1.48;;
74231;SDS011;62590;52.430;4.902;2022-09-09T15:51:52;2.50;;;1.08;;
74231;SDS011;62590;52.430;4.902;2022-09-09T15:54:20;6.05;;;1.42;;
74231;SDS011;62590;52.430;4.902;2022-09-09T15:56:59;6.10;;;1.30;;
74231;SDS011;62590;52.430;4.902;2022-09-09T15:59:38;6.15;;;1.30;;
74231;SDS011;62590;52.430;4.902;2022-09-09T16:02:06;11.05;;;2.17;;
74231;SDS011;62590;52.430;4.902;2022-09-09T16:04:32;5.95;;;1.48;;
74231;SDS011;62590;52.430;4.902;2022-09-09T16:07:01;10.20;;;1.33;;
74231;SDS011;62590;52.430;4.902;2022-09-09T16:09:29;7.65;;;1.10;;
74231;SDS011;62590;52.430;4.902;2022-09-09T16:12:19;7.03;;;1.60;;
74231;SDS011;62590;52.430;4.902;2022-09-09T16:14:57;6.10;;;1.25;;
74231;SDS011;62590;52.430;4.902;2022-09-09T16:17:22;6.07;;;1.67;;
74231;SDS011;62590;52.430;4.902;2022-09-09T16:19:51;4.47;;;1.35;;
74231;SDS011;62590;52.430;4.902;2022-09-09T16:22:22;5.65;;;1.60;;
74231;SDS011;62590;52.430;4.902;2022-09-09T16:25:05;3.83;;;1.23;;
74231;SDS011;62590;52.430;4.902;2022-09-09T16:27:33;5.30;;;1.15;;
74231;SDS011;62590;52.430;4.902;2022-09-09T16:30:03;6.35;;;1.20;;
74231;SDS011;62590;52.430;4.902;2022-09-09T16:32:29;3.85;;;1.25;;
74231;SDS011;62590;52.430;4.902;2022-09-09T16:34:55;3.88;;;1.05;;
74231;SDS011;62590;52.430;4.902;2022-09-09T16:37:26;7.35;;;1.33;;
74231;SDS011;62590;52.430;4.902;2022-09-09T16:39:55;3.75;;;1.25;;
74231;SDS011;62590;52.430;4.902;2022-09-09T16:42:20;2.78;;;1.00;;
74231;SDS011;62590;52.430;4.902;2022-09-09T16:44:45;5.10;;;1.08;;
74231;SDS011;62590;52.430;4.902;2022-09-09T16:47:11;6.38;;;1.58;;
74231;SDS011;62590;52.430;4.902;2022-09-09T16:49:36;3.67;;;1.02;;
74231;SDS011;62590;52.430;4.902;2022-09-09T16:52:02;6.65;;;1.40;;
74231;SDS011;62590;52.430;4.902;2022-09-09T16:54:27;5.43;;;1.35;;
74231;SDS011;62590;52.430;4.902;2022-09-09T16:56:53;6.55;;;1.67;;
74231;SDS011;62590;52.430;4.902;2022-09-09T16:59:20;6.25;;;1.63;;
74231;SDS011;62590;52.430;4.902;2022-09-09T17:01:47;6.47;;;2.00;;
74231;SDS011;62590;52.430;4.902;2022-09-09T17:04:15;5.75;;;1.83;;
74231;SDS011;62590;52.430;4.902;2022-09-09T17:06:46;3.55;;;0.90;;
74231;SDS011;62590;52.430;4.902;2022-09-09T17:09:15;9.00;;;1.48;;